createdAt,value
2017-11-20T00:00:18.412Z,53.00
2017-11-20T00:02:47.231Z,52.10
2017-11-20T00:05:16.312Z,52.30
2017-11-20T00:07:45.252Z,52.40
2017-11-20T00:10:14.075Z,52.30
2017-11-20T00:12:42.902Z,52.00
2017-11-20T00:15:11.763Z,51.40
2017-11-20T00:17:40.433Z,51.00
2017-11-20T00:20:09.213Z,52.00
2017-11-20T00:22:38.184Z,51.80
2017-11-20T00:25:07.040Z,51.70
2017-11-20T00:27:36.693Z,51.70
2017-11-20T00:30:05.722Z,51.70
2017-11-20T00:32:34.592Z,52.20
2017-11-20T00:35:03.564Z,52.80
2017-11-20T00:37:32.331Z,52.60
2017-11-20T00:40:01.189Z,52.70
2017-11-20T00:42:31.214Z,52.60
2017-11-20T00:45:00.067Z,52.60
2017-11-20T00:47:28.813Z,52.60
2017-11-20T00:49:57.621Z,52.90
2017-11-20T00:52:26.365Z,52.60
2017-11-20T00:54:55.184Z,52.90
2017-11-20T00:57:23.907Z,52.60
2017-11-20T00:59:52.547Z,52.00
2017-11-20T01:02:21.377Z,52.80
2017-11-20T01:04:50.174Z,52.00
2017-11-20T01:07:19.467Z,52.70
2017-11-20T01:09:48.241Z,52.40
2017-11-20T01:12:17.282Z,52.70
2017-11-20T01:14:46.185Z,52.50
2017-11-20T01:17:15.135Z,52.30
2017-11-20T01:19:43.936Z,51.90
2017-11-20T01:22:12.855Z,52.80
2017-11-20T01:24:41.591Z,52.80
2017-11-20T01:27:11.274Z,52.80
2017-11-20T01:29:40.004Z,52.70
2017-11-20T01:32:09.673Z,53.00
2017-11-20T01:34:39.250Z,53.60
2017-11-20T01:37:08.099Z,53.60
2017-11-20T01:39:36.799Z,53.70
2017-11-20T01:42:05.597Z,53.80
2017-11-20T01:44:35.649Z,52.60
2017-11-20T01:47:04.698Z,52.50
2017-11-20T01:49:34.860Z,54.10
2017-11-20T01:52:04.872Z,54.40
2017-11-20T01:54:33.523Z,54.60
2017-11-20T01:57:02.626Z,54.40
2017-11-20T01:59:31.550Z,54.20
2017-11-20T02:02:00.571Z,53.50
2017-11-20T02:04:29.388Z,52.70
2017-11-20T02:06:58.217Z,53.20
2017-11-20T02:09:27.170Z,52.80
2017-11-20T02:11:56.552Z,53.10
2017-11-20T02:14:25.361Z,53.10
2017-11-20T02:16:54.227Z,52.70
2017-11-20T02:19:23.718Z,53.00
2017-11-20T02:21:52.630Z,52.90
2017-11-20T02:24:21.581Z,52.80
2017-11-20T02:26:50.400Z,52.80
2017-11-20T02:29:19.288Z,53.30
2017-11-20T02:31:49.368Z,55.10
2017-11-20T02:34:18.125Z,55.10
2017-11-20T02:36:46.783Z,55.80
2017-11-20T02:39:15.561Z,54.90
2017-11-20T02:41:45.239Z,54.60
2017-11-20T02:44:14.017Z,54.60
2017-11-20T02:46:43.000Z,54.50
2017-11-20T02:49:11.848Z,54.70
2017-11-20T02:51:41.297Z,54.10
2017-11-20T02:54:10.199Z,54.00
2017-11-20T02:56:38.940Z,54.10
2017-11-20T02:59:07.883Z,54.10
2017-11-20T03:01:36.917Z,53.90
2017-11-20T03:04:05.905Z,54.80
2017-11-20T03:06:35.707Z,55.20
2017-11-20T03:09:06.171Z,53.80
2017-11-20T03:11:35.937Z,53.80
2017-11-20T03:14:05.826Z,53.10
2017-11-20T03:16:34.562Z,53.30
2017-11-20T03:19:03.357Z,53.50
2017-11-20T03:21:32.156Z,53.20
2017-11-20T03:24:00.945Z,53.20
2017-11-20T03:26:29.796Z,53.10
2017-11-20T03:28:58.755Z,52.90
2017-11-20T03:31:27.817Z,52.60
2017-11-20T03:33:56.523Z,53.00
2017-11-20T03:36:26.279Z,52.90
2017-11-20T03:38:55.356Z,52.80
2017-11-20T03:41:24.898Z,52.60
2017-11-20T03:43:53.603Z,52.50
2017-11-20T03:46:22.445Z,52.40
2017-11-20T03:48:51.278Z,52.60
2017-11-20T03:51:20.190Z,53.00
2017-11-20T03:53:48.979Z,53.30
2017-11-20T03:56:17.781Z,52.90
2017-11-20T03:58:46.485Z,53.10
2017-11-20T04:01:15.221Z,52.60
2017-11-20T04:03:44.040Z,53.00
2017-11-20T04:06:13.801Z,53.30
2017-11-20T04:08:43.325Z,53.30
2017-11-20T04:11:12.135Z,52.30
2017-11-20T04:13:40.837Z,51.50
2017-11-20T04:16:10.352Z,50.10
2017-11-20T04:18:40.102Z,49.70
2017-11-20T04:21:08.912Z,49.60
2017-11-20T04:23:37.895Z,49.50
2017-11-20T04:26:06.908Z,49.20
2017-11-20T04:28:35.621Z,49.10
2017-11-20T04:31:04.336Z,49.00
2017-11-20T04:33:33.422Z,48.90
2017-11-20T04:36:02.245Z,48.90
2017-11-20T04:38:31.014Z,48.50
2017-11-20T04:41:00.585Z,48.60
2017-11-20T04:43:30.078Z,48.50
2017-11-20T04:45:58.952Z,48.20
2017-11-20T04:48:28.597Z,47.70
2017-11-20T04:50:57.628Z,47.70
2017-11-20T04:53:27.885Z,47.60
2017-11-20T04:55:56.634Z,47.50
2017-11-20T04:58:25.493Z,47.50
2017-11-20T05:00:54.160Z,47.30
2017-11-20T05:03:23.185Z,46.80
2017-11-20T05:05:52.631Z,46.80
2017-11-20T05:08:22.077Z,46.40
2017-11-20T05:10:50.733Z,46.40
2017-11-20T05:13:30.129Z,46.40
2017-11-20T05:15:58.924Z,46.60
2017-11-20T05:18:27.750Z,46.50
2017-11-20T05:20:57.324Z,46.40
2017-11-20T05:23:26.784Z,45.90
2017-11-20T05:25:55.475Z,45.80
2017-11-20T05:28:24.298Z,45.80
2017-11-20T05:30:53.156Z,45.70
2017-11-20T05:33:21.833Z,45.50
2017-11-20T05:35:50.656Z,45.30
2017-11-20T05:38:19.404Z,45.60
2017-11-20T05:40:48.199Z,45.70
2017-11-20T05:43:17.249Z,45.40
2017-11-20T05:45:46.205Z,45.40
2017-11-20T05:48:14.953Z,45.50
2017-11-20T05:50:44.335Z,45.10
2017-11-20T05:53:14.143Z,45.10
2017-11-20T05:55:43.133Z,45.10
2017-11-20T05:58:12.195Z,44.80
2017-11-20T06:00:40.931Z,45.20
2017-11-20T06:03:09.960Z,44.60
2017-11-20T06:05:38.909Z,45.10
2017-11-20T06:08:07.704Z,45.00
2017-11-20T06:10:36.494Z,45.00
2017-11-20T06:13:05.304Z,44.80
2017-11-20T06:15:34.169Z,44.90
2017-11-20T06:18:02.918Z,45.00
2017-11-20T06:20:31.794Z,45.30
2017-11-20T06:23:00.936Z,45.50
2017-11-20T06:25:29.613Z,45.70
2017-11-20T06:27:58.380Z,45.80
2017-11-20T06:30:27.453Z,45.70
2017-11-20T06:32:56.297Z,46.10
2017-11-20T06:35:25.083Z,46.50
2017-11-20T06:37:54.694Z,46.80
2017-11-20T06:40:23.552Z,46.70
2017-11-20T06:42:52.297Z,46.90
2017-11-20T06:45:21.076Z,47.00
2017-11-20T06:47:49.803Z,46.60
2017-11-20T06:50:18.782Z,46.70
2017-11-20T06:52:47.774Z,47.10
2017-11-20T06:55:16.532Z,47.70
2017-11-20T06:57:46.482Z,47.20
2017-11-20T07:00:16.986Z,47.20
2017-11-20T07:02:45.992Z,47.20
2017-11-20T07:05:14.891Z,47.30
2017-11-20T07:07:43.653Z,47.20
2017-11-20T07:10:12.991Z,47.50
2017-11-20T07:12:41.738Z,47.80
2017-11-20T07:15:11.631Z,47.50
2017-11-20T07:17:41.178Z,47.40
2017-11-20T07:20:10.740Z,47.60
2017-11-20T07:22:39.931Z,47.60
2017-11-20T07:25:20.554Z,47.40
2017-11-20T07:28:01.201Z,47.30
2017-11-20T07:30:41.902Z,47.20
2017-11-20T07:33:10.803Z,46.90
2017-11-20T07:38:59.732Z,46.50
2017-11-20T07:41:40.226Z,46.40
2017-11-20T07:44:09.143Z,45.90
2017-11-20T07:46:37.943Z,45.80
2017-11-20T07:49:06.891Z,45.40
2017-11-20T07:51:35.642Z,45.10
2017-11-20T07:54:05.198Z,44.20
2017-11-20T07:56:35.124Z,44.20
2017-11-20T07:59:03.866Z,43.50
2017-11-20T08:01:32.640Z,43.40
2017-11-20T08:04:01.441Z,43.50
2017-11-20T08:06:30.268Z,43.70
2017-11-20T08:08:58.981Z,42.90
2017-11-20T08:11:27.753Z,42.20
2017-11-20T08:13:56.918Z,42.70
2017-11-20T08:16:26.234Z,42.30
2017-11-20T08:18:56.954Z,42.00
2017-11-20T08:21:26.290Z,41.90
2017-11-20T08:23:55.050Z,42.50
2017-11-20T08:26:23.920Z,42.20
2017-11-20T08:28:52.785Z,42.20
2017-11-20T08:31:21.637Z,42.10
2017-11-20T08:33:51.136Z,42.30
2017-11-20T08:36:19.895Z,42.00
2017-11-20T08:38:48.898Z,42.00
2017-11-20T08:41:17.737Z,42.60
2017-11-20T08:43:46.448Z,42.40
2017-11-20T08:46:15.336Z,42.00
2017-11-20T08:48:44.248Z,41.60
2017-11-20T08:51:12.995Z,41.30
2017-11-20T08:53:41.937Z,41.50
2017-11-20T08:56:11.116Z,40.80
2017-11-20T08:58:39.879Z,40.70
2017-11-20T09:01:09.439Z,40.70
2017-11-20T09:03:38.100Z,40.60
2017-11-20T09:06:06.886Z,40.40
2017-11-20T09:08:35.704Z,40.30
2017-11-20T09:11:04.521Z,40.40
2017-11-20T09:13:33.585Z,40.20
2017-11-20T09:16:03.365Z,39.90
2017-11-20T09:18:32.683Z,39.80
2017-11-20T09:21:01.789Z,39.70
2017-11-20T09:23:31.072Z,39.50
2017-11-20T09:26:00.552Z,39.90
2017-11-20T09:28:30.175Z,38.70
2017-11-20T09:30:59.012Z,39.20
2017-11-20T09:33:27.721Z,38.60
2017-11-20T09:35:56.725Z,39.20
2017-11-20T09:38:25.554Z,37.60
2017-11-20T09:40:54.469Z,37.50
2017-11-20T09:43:24.239Z,36.20
2017-11-20T09:45:53.353Z,36.20
2017-11-20T09:48:22.072Z,36.80
2017-11-20T09:50:51.004Z,36.70
2017-11-20T09:53:19.943Z,36.30
2017-11-20T09:55:49.686Z,35.80
2017-11-20T09:58:18.524Z,35.80
2017-11-20T10:00:48.088Z,36.20
2017-11-20T10:03:17.045Z,36.20
2017-11-20T10:05:45.840Z,34.00
2017-11-20T10:08:14.952Z,34.10
2017-11-20T10:10:46.057Z,33.10
2017-11-20T10:13:15.152Z,33.00
2017-11-20T10:15:43.980Z,33.10
2017-11-20T10:18:12.853Z,32.10
2017-11-20T10:20:41.742Z,30.90
2017-11-20T10:23:10.739Z,31.10
2017-11-20T10:25:39.599Z,30.30
2017-11-20T10:28:08.456Z,29.20
2017-11-20T10:30:37.134Z,30.00
2017-11-20T10:33:06.070Z,30.10
2017-11-20T10:35:35.243Z,29.80
2017-11-20T10:38:04.101Z,29.50
2017-11-20T10:40:33.131Z,28.10
2017-11-20T10:43:02.352Z,30.10
2017-11-20T10:45:31.622Z,27.90
2017-11-20T10:48:00.586Z,27.40
2017-11-20T10:50:29.821Z,28.50
2017-11-20T10:52:58.553Z,27.20
2017-11-20T10:55:29.832Z,26.40
2017-11-20T10:57:58.855Z,26.40
2017-11-20T11:00:30.517Z,27.50
2017-11-20T11:02:59.268Z,26.10
2017-11-20T11:05:29.116Z,26.70
2017-11-20T11:07:58.516Z,26.20
2017-11-20T11:10:28.394Z,26.10
2017-11-20T11:12:57.807Z,26.10
2017-11-20T11:15:26.779Z,26.00
2017-11-20T11:17:55.778Z,25.70
2017-11-20T11:20:24.518Z,27.20
2017-11-20T11:22:53.402Z,25.80
2017-11-20T11:25:22.387Z,25.70
2017-11-20T11:27:51.362Z,25.50
2017-11-20T11:30:20.194Z,24.50
2017-11-20T11:32:49.359Z,25.20
2017-11-20T11:35:18.084Z,25.80
2017-11-20T11:37:47.729Z,24.80
2017-11-20T11:40:16.523Z,24.70
2017-11-20T11:42:45.587Z,25.50
2017-11-20T11:45:14.732Z,26.70
2017-11-20T11:47:43.966Z,25.60
2017-11-20T11:50:12.765Z,25.70
2017-11-20T11:52:42.406Z,25.10
2017-11-20T11:55:11.863Z,25.10
2017-11-20T11:57:40.925Z,26.10
2017-11-20T12:00:10.354Z,26.10
2017-11-20T12:02:39.342Z,24.60
2017-11-20T12:05:08.270Z,25.80
2017-11-20T12:07:37.567Z,24.80
2017-11-20T12:10:06.425Z,25.10
2017-11-20T12:12:36.076Z,25.70
2017-11-20T12:15:06.476Z,24.10
2017-11-20T12:17:36.263Z,23.70
2017-11-20T12:20:05.179Z,23.60
2017-11-20T12:22:34.108Z,23.90
2017-11-20T12:25:03.048Z,23.70
2017-11-20T12:27:32.732Z,24.30
2017-11-20T12:30:01.729Z,24.20
2017-11-20T12:32:30.863Z,25.10
2017-11-20T12:35:00.180Z,24.10
2017-11-20T12:37:29.114Z,24.30
2017-11-20T12:39:59.172Z,24.10
2017-11-20T12:42:29.267Z,23.60
2017-11-20T12:44:59.219Z,24.60
2017-11-20T12:47:29.219Z,25.00
2017-11-20T12:49:59.116Z,24.10
2017-11-20T12:52:27.962Z,23.30
2017-11-20T12:54:56.848Z,23.90
2017-11-20T12:57:25.933Z,23.80
2017-11-20T12:59:54.760Z,25.10
2017-11-20T13:02:23.959Z,24.90
2017-11-20T13:04:52.929Z,25.10
2017-11-20T13:07:21.860Z,24.90
2017-11-20T13:09:51.367Z,24.80
2017-11-20T13:12:20.900Z,24.90
2017-11-20T13:14:49.761Z,24.80
2017-11-20T13:17:19.617Z,24.20
2017-11-20T13:19:48.623Z,24.20
2017-11-20T13:22:18.538Z,24.70
2017-11-20T13:24:47.442Z,24.70
2017-11-20T13:27:16.290Z,24.80
2017-11-20T13:29:45.063Z,24.50
2017-11-20T13:32:14.086Z,24.30
2017-11-20T13:34:42.902Z,24.50
2017-11-20T13:37:11.689Z,24.10
2017-11-20T13:39:40.634Z,24.40
2017-11-20T13:42:09.458Z,23.90
2017-11-20T13:44:38.276Z,24.40
2017-11-20T13:47:07.136Z,24.70
2017-11-20T13:49:35.867Z,24.80
2017-11-20T13:52:04.966Z,24.20
2017-11-20T13:54:33.847Z,24.10
2017-11-20T13:57:03.597Z,25.00
2017-11-20T13:59:32.497Z,25.00
2017-11-20T14:02:01.663Z,25.50
2017-11-20T14:04:30.621Z,25.40
2017-11-20T14:06:59.592Z,25.30
2017-11-20T14:09:28.600Z,25.20
2017-11-20T14:11:57.555Z,25.50
2017-11-20T14:14:26.516Z,25.40
2017-11-20T14:16:55.850Z,26.00
2017-11-20T14:19:24.828Z,25.80
2017-11-20T14:21:53.828Z,26.20
2017-11-20T14:24:22.722Z,26.30
2017-11-20T14:26:51.673Z,26.00
2017-11-20T14:29:20.438Z,26.10
2017-11-20T14:31:49.727Z,26.70
2017-11-20T14:34:18.532Z,26.80
2017-11-20T14:36:47.485Z,26.80
2017-11-20T14:39:16.492Z,27.00
2017-11-20T14:41:45.506Z,26.90
2017-11-20T14:44:14.360Z,26.90
2017-11-20T14:46:43.271Z,26.50
2017-11-20T14:49:12.226Z,26.30
2017-11-20T14:51:45.492Z,27.50
2017-11-20T14:54:18.512Z,27.80
2017-11-20T14:56:47.485Z,27.80
2017-11-20T14:59:16.397Z,29.50
2017-11-20T15:01:46.205Z,29.70
2017-11-20T15:04:15.224Z,29.70
2017-11-20T15:06:44.068Z,29.10
2017-11-20T15:09:13.808Z,29.60
2017-11-20T15:11:43.518Z,30.20
2017-11-20T15:14:12.716Z,30.10
2017-11-20T15:16:42.664Z,31.10
2017-11-20T15:19:11.540Z,30.60
2017-11-20T15:21:40.400Z,31.00
2017-11-20T15:24:09.286Z,31.10
2017-11-20T15:26:39.050Z,31.40
2017-11-20T15:29:07.995Z,31.40
2017-11-20T15:31:36.898Z,32.50
2017-11-20T15:34:06.288Z,32.10
2017-11-20T15:36:35.251Z,31.80
2017-11-20T15:39:04.215Z,33.10
2017-11-20T15:41:34.014Z,33.00
2017-11-20T15:44:02.731Z,33.00
2017-11-20T15:46:31.499Z,32.60
2017-11-20T15:49:00.544Z,31.60
2017-11-20T15:51:31.043Z,31.90
2017-11-20T15:54:00.499Z,31.50
2017-11-20T15:56:30.488Z,30.90
2017-11-20T15:59:01.419Z,32.00
2017-11-20T16:01:30.823Z,31.90
2017-11-20T16:04:00.481Z,31.90
2017-11-20T16:06:30.363Z,31.70
2017-11-20T16:09:00.482Z,32.90
2017-11-20T16:11:31.091Z,31.20
2017-11-20T16:14:00.448Z,32.30
2017-11-20T16:16:31.255Z,31.30
2017-11-20T16:19:00.725Z,31.20
2017-11-20T16:21:29.581Z,31.50
2017-11-20T16:23:58.546Z,29.60
2017-11-20T16:26:27.443Z,28.60
2017-11-20T16:28:56.372Z,29.90
2017-11-20T16:31:25.205Z,31.60
2017-11-20T16:33:54.927Z,31.50
2017-11-20T16:36:24.586Z,31.80
2017-11-20T16:38:53.639Z,31.80
2017-11-20T16:41:22.932Z,32.30
2017-11-20T16:43:51.729Z,32.40
2017-11-20T16:46:20.517Z,32.80
2017-11-20T16:48:49.611Z,34.40
2017-11-20T16:51:18.691Z,34.40
2017-11-20T16:53:47.634Z,33.50
2017-11-20T16:56:16.662Z,32.50
2017-11-20T16:58:49.673Z,32.90
2017-11-20T17:04:23.132Z,33.90
2017-11-20T17:06:51.966Z,34.60
2017-11-20T17:09:20.850Z,35.10
2017-11-20T17:11:49.669Z,35.00
2017-11-20T17:14:18.612Z,35.30
2017-11-20T17:16:47.363Z,35.40
2017-11-20T17:19:16.224Z,35.90
2017-11-20T17:21:45.049Z,35.70
2017-11-20T17:24:13.786Z,36.70
2017-11-20T17:26:42.589Z,36.40
2017-11-20T17:29:11.633Z,36.80
2017-11-20T17:31:40.427Z,35.80
2017-11-20T17:34:09.168Z,36.70
2017-11-20T17:36:38.210Z,36.80
2017-11-20T17:39:07.247Z,35.90
2017-11-20T17:41:36.382Z,37.00
2017-11-20T17:44:06.969Z,37.60
2017-11-20T17:46:37.058Z,37.60
2017-11-20T17:49:06.490Z,37.10
2017-11-20T17:51:36.416Z,36.50
2017-11-20T17:54:07.169Z,37.50
2017-11-20T17:56:36.722Z,36.80
2017-11-20T17:59:06.827Z,36.00
2017-11-20T18:01:36.661Z,36.20
2017-11-20T18:04:06.525Z,37.30
2017-11-20T18:06:35.363Z,36.00
2017-11-20T18:09:04.667Z,35.60
2017-11-20T18:11:33.582Z,36.40
2017-11-20T18:14:03.542Z,35.00
2017-11-20T18:16:32.651Z,35.00
2017-11-20T18:19:01.627Z,36.50
2017-11-20T18:21:30.558Z,36.90
2017-11-20T18:23:59.598Z,35.90
2017-11-20T18:26:28.623Z,34.90
2017-11-20T18:28:57.627Z,34.10
2017-11-20T18:31:26.807Z,34.50
2017-11-20T18:33:55.559Z,34.20
2017-11-20T18:36:25.243Z,33.00
2017-11-20T18:38:54.230Z,32.90
2017-11-20T18:41:22.988Z,33.90
2017-11-20T18:43:51.983Z,34.60
2017-11-20T18:46:20.968Z,36.00
2017-11-20T18:48:49.769Z,36.20
2017-11-20T18:51:18.616Z,37.00
2017-11-20T18:53:49.122Z,36.30
2017-11-20T18:56:19.071Z,36.50
2017-11-20T18:58:49.167Z,36.80
2017-11-20T19:01:31.060Z,36.10
2017-11-20T19:04:11.757Z,35.80
2017-11-20T19:06:53.016Z,37.20
2017-11-20T19:09:21.911Z,37.20
2017-11-20T19:11:53.467Z,36.70
2017-11-20T19:14:23.807Z,35.80
2017-11-20T19:16:52.749Z,36.20
2017-11-20T19:19:21.471Z,36.20
2017-11-20T19:21:50.381Z,36.90
2017-11-20T19:24:19.600Z,37.30
2017-11-20T19:26:50.085Z,39.30
2017-11-20T19:29:18.994Z,38.70
2017-11-20T19:31:48.808Z,38.50
2017-11-20T19:34:19.596Z,38.90
2017-11-20T19:36:49.588Z,38.00
2017-11-20T19:39:18.968Z,38.00
2017-11-20T19:41:49.146Z,38.50
2017-11-20T19:44:19.685Z,38.20
2017-11-20T19:46:49.847Z,39.60
2017-11-20T19:49:19.192Z,39.40
2017-11-20T19:51:49.053Z,39.70
2017-11-20T19:54:19.483Z,38.90
2017-11-20T19:56:49.182Z,38.20
2017-11-20T19:59:19.319Z,38.70
2017-11-20T20:01:49.304Z,39.70
2017-11-20T20:04:19.882Z,39.30
2017-11-20T20:06:49.225Z,38.90
2017-11-20T20:09:21.124Z,39.30
2017-11-20T20:11:50.375Z,39.30
2017-11-20T20:14:27.130Z,39.70
2017-11-20T20:17:06.164Z,39.80
2017-11-20T20:19:35.052Z,39.60
2017-11-20T20:22:04.137Z,39.60
2017-11-20T20:24:33.305Z,39.40
2017-11-20T20:27:02.256Z,40.20
2017-11-20T20:29:31.174Z,40.40
2017-11-20T20:32:00.925Z,40.30
2017-11-20T20:34:29.958Z,40.70
2017-11-20T20:36:59.214Z,41.20
2017-11-20T20:39:28.284Z,40.50
2017-11-20T20:41:57.444Z,40.70
2017-11-20T20:44:26.664Z,40.70
2017-11-20T20:46:55.560Z,41.10
2017-11-20T20:49:24.925Z,40.30
2017-11-20T20:51:53.687Z,40.30
2017-11-20T20:54:22.394Z,41.00
2017-11-20T20:56:51.319Z,40.70
2017-11-20T20:59:20.196Z,41.40
2017-11-20T21:01:48.914Z,41.30
2017-11-20T21:04:18.791Z,40.80
2017-11-20T21:06:59.359Z,40.40
2017-11-20T21:09:30.450Z,41.70
2017-11-20T21:12:04.856Z,41.60
2017-11-20T21:14:33.606Z,41.80
2017-11-20T21:17:02.304Z,41.60
2017-11-20T21:19:31.436Z,41.50
2017-11-20T21:22:00.148Z,41.40
2017-11-20T21:24:28.902Z,42.10
2017-11-20T21:26:57.757Z,41.50
2017-11-20T21:29:26.936Z,41.80
2017-11-20T21:31:55.797Z,41.80
2017-11-20T21:34:25.489Z,42.00
2017-11-20T21:36:54.255Z,42.00
2017-11-20T21:39:22.973Z,41.90
2017-11-20T21:41:51.827Z,42.10
2017-11-20T21:44:20.764Z,42.30
2017-11-20T21:46:49.574Z,42.20
2017-11-20T21:49:18.514Z,42.10
2017-11-20T21:51:47.228Z,42.00
2017-11-20T21:54:15.994Z,42.10
2017-11-20T21:56:45.097Z,42.60
2017-11-20T21:59:13.944Z,42.60
2017-11-20T22:01:42.938Z,43.00
2017-11-20T22:04:12.083Z,42.90
2017-11-20T22:06:41.171Z,43.20
2017-11-20T22:09:10.187Z,42.90
2017-11-20T22:11:39.107Z,43.60
2017-11-20T22:14:07.788Z,43.70
2017-11-20T22:16:36.693Z,43.70
2017-11-20T22:19:05.731Z,43.40
2017-11-20T22:21:36.195Z,43.30
2017-11-20T22:24:05.416Z,43.30
2017-11-20T22:26:35.244Z,43.00
2017-11-20T22:29:04.272Z,43.00
2017-11-20T22:31:34.070Z,43.40
2017-11-20T22:34:03.504Z,43.60
2017-11-20T22:36:32.237Z,43.60
2017-11-20T22:39:01.877Z,43.00
2017-11-20T22:41:30.606Z,43.00
2017-11-20T22:44:00.215Z,42.90
2017-11-20T22:46:29.076Z,42.90
2017-11-20T22:48:58.006Z,43.00
2017-11-20T22:51:26.948Z,43.00
2017-11-20T22:53:55.632Z,43.40
2017-11-20T22:56:24.493Z,43.70
2017-11-20T22:58:53.247Z,43.90
2017-11-20T23:01:22.149Z,43.80
2017-11-20T23:03:51.028Z,43.50
2017-11-20T23:06:19.797Z,44.00
2017-11-20T23:08:48.642Z,43.10
2017-11-20T23:11:17.474Z,43.30
2017-11-20T23:13:46.724Z,43.70
2017-11-20T23:16:15.601Z,44.10
2017-11-20T23:18:44.312Z,43.10
2017-11-20T23:21:13.074Z,43.50
2017-11-20T23:23:41.971Z,43.50
2017-11-20T23:26:10.666Z,43.80
2017-11-20T23:28:39.427Z,44.10
2017-11-20T23:31:09.061Z,43.50
2017-11-20T23:33:37.963Z,43.40
2017-11-20T23:36:06.714Z,43.70
2017-11-20T23:38:35.650Z,43.70
2017-11-20T23:41:06.520Z,44.40
2017-11-20T23:43:36.773Z,44.70
2017-11-20T23:46:05.729Z,44.40
2017-11-20T23:48:34.445Z,44.80
2017-11-20T23:51:03.243Z,44.70
2017-11-20T23:53:35.150Z,44.40
2017-11-20T23:56:03.960Z,44.00
2017-11-20T23:58:32.742Z,44.70
